Terminal Aerodrome Forecast
Issued by NWS Mt. Holly, NJ

Current Version | Previous Version | Text Only | Print | Product List | Glossary On
Versions: 1 2 3 4 5 6 7 8 9 10 11 12 13
000
FTUS41 KPHI 311700 RRA
TAFILG
TAF
KILG 311755Z 3118/0118 22011KT P6SM FEW050
     FM010000 18005KT P6SM FEW060
     FM010800 VRB03KT P6SM BKN050
     FM011200 20005KT P6SM SCT050 OVC100=

USA.gov is the U.S. government's official web portal to all federal, state and local government web resources and services.